sensor_id;sensor_type;location;lat;lon;timestamp;P1;durP1;ratioP1;P2;durP2;ratioP2
39020;SDS011;25188;51.958;5.842;2023-08-21T00:00:47;2.65;;;0.70;;
39020;SDS011;25188;51.958;5.842;2023-08-21T00:03:13;6.80;;;1.20;;
39020;SDS011;25188;51.958;5.842;2023-08-21T00:05:38;3.47;;;1.08;;
39020;SDS011;25188;51.958;5.842;2023-08-21T00:08:04;2.85;;;0.80;;
39020;SDS011;25188;51.958;5.842;2023-08-21T00:10:30;3.70;;;0.70;;
39020;SDS011;25188;51.958;5.842;2023-08-21T00:12:56;3.45;;;0.82;;
39020;SDS011;25188;51.958;5.842;2023-08-21T00:15:22;4.72;;;0.90;;
39020;SDS011;25188;51.958;5.842;2023-08-21T00:17:48;2.20;;;0.82;;
39020;SDS011;25188;51.958;5.842;2023-08-21T00:20:13;3.78;;;0.85;;
39020;SDS011;25188;51.958;5.842;2023-08-21T00:22:39;4.65;;;0.95;;
39020;SDS011;25188;51.958;5.842;2023-08-21T00:25:04;4.30;;;0.70;;
39020;SDS011;25188;51.958;5.842;2023-08-21T00:27:30;3.13;;;0.80;;
39020;SDS011;25188;51.958;5.842;2023-08-21T00:29:57;4.05;;;1.05;;
39020;SDS011;25188;51.958;5.842;2023-08-21T00:32:23;3.58;;;0.88;;
39020;SDS011;25188;51.958;5.842;2023-08-21T00:34:49;2.95;;;0.70;;
39020;SDS011;25188;51.958;5.842;2023-08-21T00:37:14;4.30;;;1.08;;
39020;SDS011;25188;51.958;5.842;2023-08-21T00:39:40;4.55;;;1.00;;
39020;SDS011;25188;51.958;5.842;2023-08-21T00:42:05;5.20;;;0.82;;
39020;SDS011;25188;51.958;5.842;2023-08-21T00:44:32;5.20;;;0.90;;
39020;SDS011;25188;51.958;5.842;2023-08-21T00:46:58;5.03;;;0.80;;
39020;SDS011;25188;51.958;5.842;2023-08-21T00:49:24;4.18;;;0.80;;
39020;SDS011;25188;51.958;5.842;2023-08-21T00:51:50;4.82;;;0.80;;
39020;SDS011;25188;51.958;5.842;2023-08-21T00:54:17;4.47;;;0.80;;
39020;SDS011;25188;51.958;5.842;2023-08-21T00:56:43;4.72;;;0.70;;
39020;SDS011;25188;51.958;5.842;2023-08-21T00:59:09;2.83;;;0.65;;
39020;SDS011;25188;51.958;5.842;2023-08-21T01:01:35;6.65;;;0.95;;
39020;SDS011;25188;51.958;5.842;2023-08-21T01:04:02;4.80;;;0.93;;
39020;SDS011;25188;51.958;5.842;2023-08-21T01:06:28;3.92;;;0.80;;
39020;SDS011;25188;51.958;5.842;2023-08-21T01:09:02;3.72;;;0.70;;
39020;SDS011;25188;51.958;5.842;2023-08-21T01:17:24;2.83;;;0.82;;
39020;SDS011;25188;51.958;5.842;2023-08-21T01:19:51;4.95;;;1.02;;
39020;SDS011;25188;51.958;5.842;2023-08-21T01:22:18;4.72;;;0.98;;
39020;SDS011;25188;51.958;5.842;2023-08-21T01:24:44;4.38;;;1.00;;
39020;SDS011;25188;51.958;5.842;2023-08-21T01:27:10;5.38;;;1.00;;
39020;SDS011;25188;51.958;5.842;2023-08-21T01:29:38;3.15;;;1.10;;
39020;SDS011;25188;51.958;5.842;2023-08-21T01:32:14;4.53;;;0.80;;
39020;SDS011;25188;51.958;5.842;2023-08-21T01:34:50;3.65;;;1.02;;
39020;SDS011;25188;51.958;5.842;2023-08-21T01:37:20;4.28;;;0.70;;
39020;SDS011;25188;51.958;5.842;2023-08-21T01:39:46;5.57;;;1.10;;
39020;SDS011;25188;51.958;5.842;2023-08-21T01:42:11;3.95;;;0.80;;
39020;SDS011;25188;51.958;5.842;2023-08-21T01:44:37;4.47;;;0.95;;
39020;SDS011;25188;51.958;5.842;2023-08-21T01:47:03;6.00;;;1.00;;
39020;SDS011;25188;51.958;5.842;2023-08-21T01:49:28;3.03;;;0.82;;
39020;SDS011;25188;51.958;5.842;2023-08-21T01:51:54;4.57;;;0.93;;
39020;SDS011;25188;51.958;5.842;2023-08-21T01:54:20;3.30;;;0.70;;
39020;SDS011;25188;51.958;5.842;2023-08-21T01:56:45;7.70;;;0.95;;
39020;SDS011;25188;51.958;5.842;2023-08-21T01:59:11;3.13;;;0.80;;
39020;SDS011;25188;51.958;5.842;2023-08-21T02:01:37;3.47;;;0.63;;
39020;SDS011;25188;51.958;5.842;2023-08-21T02:04:02;2.75;;;0.70;;
39020;SDS011;25188;51.958;5.842;2023-08-21T02:06:28;3.75;;;0.80;;
39020;SDS011;25188;51.958;5.842;2023-08-21T02:08:54;4.05;;;0.75;;
39020;SDS011;25188;51.958;5.842;2023-08-21T02:11:19;2.72;;;0.57;;
39020;SDS011;25188;51.958;5.842;2023-08-21T02:13:45;3.17;;;0.75;;
39020;SDS011;25188;51.958;5.842;2023-08-21T02:16:10;4.05;;;0.63;;
39020;SDS011;25188;51.958;5.842;2023-08-21T02:18:36;7.00;;;1.10;;
39020;SDS011;25188;51.958;5.842;2023-08-21T02:21:02;4.45;;;0.80;;
39020;SDS011;25188;51.958;5.842;2023-08-21T02:23:27;3.70;;;0.70;;
39020;SDS011;25188;51.958;5.842;2023-08-21T02:25:54;3.72;;;0.80;;
39020;SDS011;25188;51.958;5.842;2023-08-21T02:28:20;4.38;;;0.80;;
39020;SDS011;25188;51.958;5.842;2023-08-21T02:30:45;5.25;;;0.60;;
39020;SDS011;25188;51.958;5.842;2023-08-21T02:33:11;2.63;;;0.70;;
39020;SDS011;25188;51.958;5.842;2023-08-21T02:35:37;5.65;;;1.05;;
39020;SDS011;25188;51.958;5.842;2023-08-21T02:38:03;3.92;;;0.82;;
39020;SDS011;25188;51.958;5.842;2023-08-21T02:40:29;4.93;;;0.80;;
39020;SDS011;25188;51.958;5.842;2023-08-21T02:42:54;3.75;;;0.95;;
39020;SDS011;25188;51.958;5.842;2023-08-21T02:45:20;8.48;;;1.33;;
39020;SDS011;25188;51.958;5.842;2023-08-21T02:47:45;3.55;;;0.88;;
39020;SDS011;25188;51.958;5.842;2023-08-21T02:50:11;2.60;;;0.68;;
39020;SDS011;25188;51.958;5.842;2023-08-21T02:52:37;5.43;;;0.88;;
39020;SDS011;25188;51.958;5.842;2023-08-21T02:55:03;1.88;;;0.52;;
39020;SDS011;25188;51.958;5.842;2023-08-21T02:57:42;3.13;;;0.73;;
39020;SDS011;25188;51.958;5.842;2023-08-21T03:00:08;4.03;;;0.80;;
39020;SDS011;25188;51.958;5.842;2023-08-21T03:02:34;2.30;;;0.60;;
39020;SDS011;25188;51.958;5.842;2023-08-21T03:04:59;3.17;;;0.88;;
39020;SDS011;25188;51.958;5.842;2023-08-21T03:07:25;4.15;;;0.57;;
39020;SDS011;25188;51.958;5.842;2023-08-21T03:09:51;6.65;;;1.20;;
39020;SDS011;25188;51.958;5.842;2023-08-21T03:12:16;3.40;;;1.27;;
39020;SDS011;25188;51.958;5.842;2023-08-21T03:14:42;2.13;;;0.70;;
39020;SDS011;25188;51.958;5.842;2023-08-21T03:17:08;6.18;;;0.90;;
39020;SDS011;25188;51.958;5.842;2023-08-21T03:19:34;3.03;;;0.65;;
39020;SDS011;25188;51.958;5.842;2023-08-21T03:21:59;3.45;;;0.70;;
39020;SDS011;25188;51.958;5.842;2023-08-21T03:24:25;5.20;;;0.80;;
39020;SDS011;25188;51.958;5.842;2023-08-21T03:26:50;3.08;;;0.80;;
39020;SDS011;25188;51.958;5.842;2023-08-21T03:29:16;4.82;;;0.80;;
39020;SDS011;25188;51.958;5.842;2023-08-21T03:31:42;5.07;;;0.90;;
39020;SDS011;25188;51.958;5.842;2023-08-21T03:34:07;3.97;;;0.82;;
39020;SDS011;25188;51.958;5.842;2023-08-21T03:36:33;6.05;;;1.08;;
39020;SDS011;25188;51.958;5.842;2023-08-21T03:39:01;4.18;;;0.93;;
39020;SDS011;25188;51.958;5.842;2023-08-21T03:41:28;6.63;;;1.00;;
39020;SDS011;25188;51.958;5.842;2023-08-21T03:43:54;3.85;;;0.80;;
39020;SDS011;25188;51.958;5.842;2023-08-21T03:46:20;6.70;;;1.33;;
39020;SDS011;25188;51.958;5.842;2023-08-21T03:48:45;4.07;;;0.85;;
39020;SDS011;25188;51.958;5.842;2023-08-21T03:51:11;4.53;;;0.98;;
39020;SDS011;25188;51.958;5.842;2023-08-21T03:53:37;3.38;;;0.80;;
39020;SDS011;25188;51.958;5.842;2023-08-21T03:56:02;4.53;;;0.90;;
39020;SDS011;25188;51.958;5.842;2023-08-21T03:58:28;3.55;;;0.70;;
39020;SDS011;25188;51.958;5.842;2023-08-21T04:00:54;3.88;;;0.75;;
39020;SDS011;25188;51.958;5.842;2023-08-21T04:03:19;4.50;;;0.75;;
39020;SDS011;25188;51.958;5.842;2023-08-21T04:05:46;1.55;;;0.60;;
39020;SDS011;25188;51.958;5.842;2023-08-21T04:08:12;3.58;;;0.80;;
39020;SDS011;25188;51.958;5.842;2023-08-21T04:10:38;2.78;;;0.70;;
39020;SDS011;25188;51.958;5.842;2023-08-21T04:13:07;4.72;;;1.02;;
39020;SDS011;25188;51.958;5.842;2023-08-21T04:15:33;5.53;;;0.70;;
39020;SDS011;25188;51.958;5.842;2023-08-21T04:18:00;6.13;;;1.27;;
39020;SDS011;25188;51.958;5.842;2023-08-21T04:20:26;4.07;;;0.68;;
39020;SDS011;25188;51.958;5.842;2023-08-21T04:22:51;5.50;;;1.10;;
39020;SDS011;25188;51.958;5.842;2023-08-21T04:25:17;3.28;;;0.85;;
39020;SDS011;25188;51.958;5.842;2023-08-21T04:27:43;3.25;;;0.90;;
39020;SDS011;25188;51.958;5.842;2023-08-21T04:30:09;3.13;;;0.75;;
39020;SDS011;25188;51.958;5.842;2023-08-21T04:32:35;2.28;;;0.63;;
39020;SDS011;25188;51.958;5.842;2023-08-21T04:35:01;4.07;;;0.65;;
39020;SDS011;25188;51.958;5.842;2023-08-21T04:37:27;3.17;;;0.70;;
39020;SDS011;25188;51.958;5.842;2023-08-21T04:39:53;3.17;;;0.77;;
39020;SDS011;25188;51.958;5.842;2023-08-21T04:42:19;2.17;;;0.60;;
39020;SDS011;25188;51.958;5.842;2023-08-21T04:44:46;5.10;;;0.80;;
39020;SDS011;25188;51.958;5.842;2023-08-21T04:47:24;3.70;;;0.70;;
39020;SDS011;25188;51.958;5.842;2023-08-21T04:49:51;3.95;;;0.70;;
39020;SDS011;25188;51.958;5.842;2023-08-21T04:52:18;3.97;;;0.60;;
39020;SDS011;25188;51.958;5.842;2023-08-21T04:54:44;5.68;;;1.15;;
39020;SDS011;25188;51.958;5.842;2023-08-21T04:57:10;3.63;;;0.70;;
39020;SDS011;25188;51.958;5.842;2023-08-21T04:59:36;6.18;;;0.68;;
39020;SDS011;25188;51.958;5.842;2023-08-21T05:02:01;5.60;;;0.68;;
39020;SDS011;25188;51.958;5.842;2023-08-21T05:04:27;3.50;;;0.73;;
39020;SDS011;25188;51.958;5.842;2023-08-21T05:06:53;3.40;;;0.73;;
39020;SDS011;25188;51.958;5.842;2023-08-21T05:09:19;4.07;;;0.80;;
39020;SDS011;25188;51.958;5.842;2023-08-21T05:11:44;3.78;;;0.73;;
39020;SDS011;25188;51.958;5.842;2023-08-21T05:14:10;3.95;;;0.85;;
39020;SDS011;25188;51.958;5.842;2023-08-21T05:16:35;4.45;;;0.70;;
39020;SDS011;25188;51.958;5.842;2023-08-21T05:19:01;4.90;;;0.70;;
39020;SDS011;25188;51.958;5.842;2023-08-21T05:21:27;6.82;;;0.70;;
39020;SDS011;25188;51.958;5.842;2023-08-21T05:23:52;4.60;;;1.00;;
39020;SDS011;25188;51.958;5.842;2023-08-21T05:26:18;6.00;;;0.77;;
39020;SDS011;25188;51.958;5.842;2023-08-21T05:28:45;5.63;;;0.80;;
39020;SDS011;25188;51.958;5.842;2023-08-21T05:31:11;2.47;;;0.70;;
39020;SDS011;25188;51.958;5.842;2023-08-21T05:33:36;4.45;;;0.73;;
39020;SDS011;25188;51.958;5.842;2023-08-21T05:36:02;2.97;;;0.75;;
39020;SDS011;25188;51.958;5.842;2023-08-21T05:38:28;5.43;;;0.80;;
39020;SDS011;25188;51.958;5.842;2023-08-21T05:40:54;3.33;;;1.08;;
39020;SDS011;25188;51.958;5.842;2023-08-21T05:43:19;4.55;;;1.15;;
39020;SDS011;25188;51.958;5.842;2023-08-21T05:45:45;4.88;;;1.08;;
39020;SDS011;25188;51.958;5.842;2023-08-21T05:48:11;2.63;;;0.75;;
39020;SDS011;25188;51.958;5.842;2023-08-21T05:50:36;3.42;;;0.80;;
39020;SDS011;25188;51.958;5.842;2023-08-21T05:53:05;4.38;;;0.70;;
39020;SDS011;25188;51.958;5.842;2023-08-21T05:55:31;2.58;;;0.80;;
39020;SDS011;25188;51.958;5.842;2023-08-21T05:57:57;4.53;;;1.25;;
39020;SDS011;25188;51.958;5.842;2023-08-21T06:00:23;3.75;;;0.80;;
39020;SDS011;25188;51.958;5.842;2023-08-21T06:02:49;3.60;;;0.80;;
39020;SDS011;25188;51.958;5.842;2023-08-21T06:05:15;3.65;;;0.80;;
39020;SDS011;25188;51.958;5.842;2023-08-21T06:07:40;5.22;;;1.13;;
39020;SDS011;25188;51.958;5.842;2023-08-21T06:10:09;5.43;;;0.98;;
39020;SDS011;25188;51.958;5.842;2023-08-21T06:12:40;4.50;;;0.90;;
39020;SDS011;25188;51.958;5.842;2023-08-21T06:15:06;2.95;;;0.73;;
39020;SDS011;25188;51.958;5.842;2023-08-21T06:17:38;3.42;;;0.85;;
39020;SDS011;25188;51.958;5.842;2023-08-21T06:20:05;7.25;;;1.23;;
39020;SDS011;25188;51.958;5.842;2023-08-21T06:22:33;5.80;;;0.82;;
39020;SDS011;25188;51.958;5.842;2023-08-21T06:24:59;4.45;;;0.90;;
39020;SDS011;25188;51.958;5.842;2023-08-21T06:27:25;3.83;;;1.00;;
39020;SDS011;25188;51.958;5.842;2023-08-21T06:29:50;6.15;;;1.10;;
39020;SDS011;25188;51.958;5.842;2023-08-21T06:32:16;4.95;;;0.90;;
39020;SDS011;25188;51.958;5.842;2023-08-21T06:34:42;4.03;;;0.70;;
39020;SDS011;25188;51.958;5.842;2023-08-21T06:37:07;4.20;;;0.93;;
39020;SDS011;25188;51.958;5.842;2023-08-21T06:39:33;2.55;;;0.80;;
39020;SDS011;25188;51.958;5.842;2023-08-21T06:41:59;4.43;;;0.80;;
39020;SDS011;25188;51.958;5.842;2023-08-21T06:44:25;4.68;;;0.88;;
39020;SDS011;25188;51.958;5.842;2023-08-21T06:46:51;4.85;;;0.73;;
39020;SDS011;25188;51.958;5.842;2023-08-21T06:49:17;4.47;;;0.80;;
39020;SDS011;25188;51.958;5.842;2023-08-21T06:51:43;6.18;;;1.35;;
39020;SDS011;25188;51.958;5.842;2023-08-21T06:54:08;4.22;;;0.98;;
39020;SDS011;25188;51.958;5.842;2023-08-21T06:56:34;10.25;;;1.15;;
39020;SDS011;25188;51.958;5.842;2023-08-21T06:59:00;7.30;;;1.00;;
39020;SDS011;25188;51.958;5.842;2023-08-21T07:01:26;7.55;;;1.08;;
39020;SDS011;25188;51.958;5.842;2023-08-21T07:03:53;6.07;;;1.15;;
39020;SDS011;25188;51.958;5.842;2023-08-21T07:06:18;4.45;;;1.10;;
39020;SDS011;25188;51.958;5.842;2023-08-21T07:08:44;4.93;;;0.80;;
39020;SDS011;25188;51.958;5.842;2023-08-21T07:11:10;7.15;;;1.00;;
39020;SDS011;25188;51.958;5.842;2023-08-21T07:13:37;4.95;;;0.80;;
39020;SDS011;25188;51.958;5.842;2023-08-21T07:16:03;5.22;;;1.10;;
39020;SDS011;25188;51.958;5.842;2023-08-21T07:18:33;6.00;;;0.73;;
39020;SDS011;25188;51.958;5.842;2023-08-21T07:20:59;6.25;;;1.00;;
39020;SDS011;25188;51.958;5.842;2023-08-21T07:23:26;4.38;;;0.93;;
39020;SDS011;25188;51.958;5.842;2023-08-21T07:25:51;7.25;;;1.05;;
39020;SDS011;25188;51.958;5.842;2023-08-21T07:28:17;7.30;;;0.90;;
39020;SDS011;25188;51.958;5.842;2023-08-21T07:30:42;4.45;;;0.98;;
39020;SDS011;25188;51.958;5.842;2023-08-21T07:33:08;6.47;;;1.10;;
39020;SDS011;25188;51.958;5.842;2023-08-21T07:35:34;4.57;;;1.00;;
39020;SDS011;25188;51.958;5.842;2023-08-21T07:38:00;3.85;;;0.80;;
39020;SDS011;25188;51.958;5.842;2023-08-21T07:40:26;6.70;;;0.80;;
39020;SDS011;25188;51.958;5.842;2023-08-21T07:42:52;6.55;;;0.85;;
39020;SDS011;25188;51.958;5.842;2023-08-21T07:45:18;7.88;;;0.70;;
39020;SDS011;25188;51.958;5.842;2023-08-21T07:47:43;3.20;;;0.63;;
39020;SDS011;25188;51.958;5.842;2023-08-21T07:50:09;3.63;;;0.60;;
39020;SDS011;25188;51.958;5.842;2023-08-21T07:52:35;3.17;;;0.80;;
39020;SDS011;25188;51.958;5.842;2023-08-21T07:55:01;4.75;;;0.85;;
39020;SDS011;25188;51.958;5.842;2023-08-21T07:57:28;3.65;;;0.95;;
39020;SDS011;25188;51.958;5.842;2023-08-21T07:59:54;2.22;;;0.40;;
39020;SDS011;25188;51.958;5.842;2023-08-21T08:02:20;4.40;;;0.68;;
39020;SDS011;25188;51.958;5.842;2023-08-21T08:04:46;6.88;;;0.75;;
39020;SDS011;25188;51.958;5.842;2023-08-21T08:07:12;2.45;;;0.50;;
39020;SDS011;25188;51.958;5.842;2023-08-21T08:09:37;4.40;;;0.52;;
39020;SDS011;25188;51.958;5.842;2023-08-21T08:12:04;5.15;;;1.05;;
39020;SDS011;25188;51.958;5.842;2023-08-21T08:14:30;7.10;;;0.88;;
39020;SDS011;25188;51.958;5.842;2023-08-21T08:16:56;4.75;;;0.50;;
39020;SDS011;25188;51.958;5.842;2023-08-21T08:19:21;4.35;;;0.55;;
39020;SDS011;25188;51.958;5.842;2023-08-21T08:21:47;3.20;;;0.50;;
39020;SDS011;25188;51.958;5.842;2023-08-21T08:24:12;6.15;;;0.60;;
39020;SDS011;25188;51.958;5.842;2023-08-21T08:26:38;3.42;;;0.50;;
39020;SDS011;25188;51.958;5.842;2023-08-21T08:29:04;3.08;;;0.70;;
39020;SDS011;25188;51.958;5.842;2023-08-21T08:31:32;4.65;;;0.65;;
39020;SDS011;25188;51.958;5.842;2023-08-21T08:33:58;6.03;;;0.80;;
39020;SDS011;25188;51.958;5.842;2023-08-21T08:36:24;4.25;;;0.63;;
39020;SDS011;25188;51.958;5.842;2023-08-21T08:38:49;4.63;;;0.60;;
39020;SDS011;25188;51.958;5.842;2023-08-21T08:44:31;5.95;;;0.88;;
39020;SDS011;25188;51.958;5.842;2023-08-21T11:47:57;3.53;;;0.60;;
39020;SDS011;25188;51.958;5.842;2023-08-21T11:50:23;3.42;;;0.60;;
39020;SDS011;25188;51.958;5.842;2023-08-21T11:55:36;3.17;;;0.60;;
39020;SDS011;25188;51.958;5.842;2023-08-21T11:58:01;5.47;;;0.80;;
39020;SDS011;25188;51.958;5.842;2023-08-21T12:00:28;2.40;;;0.60;;
39020;SDS011;25188;51.958;5.842;2023-08-21T12:02:55;2.97;;;0.45;;
39020;SDS011;25188;51.958;5.842;2023-08-21T12:05:26;3.90;;;0.70;;
39020;SDS011;25188;51.958;5.842;2023-08-21T12:07:52;2.97;;;0.55;;
39020;SDS011;25188;51.958;5.842;2023-08-21T12:10:22;4.55;;;0.82;;
39020;SDS011;25188;51.958;5.842;2023-08-21T12:12:52;3.63;;;0.65;;
39020;SDS011;25188;51.958;5.842;2023-08-21T12:15:18;5.15;;;0.68;;
39020;SDS011;25188;51.958;5.842;2023-08-21T12:17:44;3.08;;;0.60;;
39020;SDS011;25188;51.958;5.842;2023-08-21T12:20:10;2.65;;;0.60;;
39020;SDS011;25188;51.958;5.842;2023-08-21T12:22:37;3.58;;;0.60;;
39020;SDS011;25188;51.958;5.842;2023-08-21T12:25:04;3.22;;;0.55;;
39020;SDS011;25188;51.958;5.842;2023-08-21T12:27:34;2.53;;;0.40;;
39020;SDS011;25188;51.958;5.842;2023-08-21T12:29:59;3.20;;;0.60;;
39020;SDS011;25188;51.958;5.842;2023-08-21T12:32:25;2.03;;;0.50;;
39020;SDS011;25188;51.958;5.842;2023-08-21T12:34:51;2.78;;;0.50;;
39020;SDS011;25188;51.958;5.842;2023-08-21T12:37:17;3.05;;;0.40;;
39020;SDS011;25188;51.958;5.842;2023-08-21T12:39:43;3.47;;;0.52;;
39020;SDS011;25188;51.958;5.842;2023-08-21T12:42:08;3.55;;;0.55;;
39020;SDS011;25188;51.958;5.842;2023-08-21T12:44:34;3.85;;;0.55;;
39020;SDS011;25188;51.958;5.842;2023-08-21T12:47:00;1.60;;;0.50;;
39020;SDS011;25188;51.958;5.842;2023-08-21T12:49:25;2.40;;;0.50;;
39020;SDS011;25188;51.958;5.842;2023-08-21T12:51:51;1.70;;;0.40;;
39020;SDS011;25188;51.958;5.842;2023-08-21T12:54:17;1.38;;;0.30;;
39020;SDS011;25188;51.958;5.842;2023-08-21T12:56:43;3.28;;;0.40;;
39020;SDS011;25188;51.958;5.842;2023-08-21T12:59:12;4.13;;;0.60;;
39020;SDS011;25188;51.958;5.842;2023-08-21T13:01:38;3.22;;;0.68;;
39020;SDS011;25188;51.958;5.842;2023-08-21T13:04:04;2.05;;;0.50;;
39020;SDS011;25188;51.958;5.842;2023-08-21T13:06:30;2.35;;;0.60;;
39020;SDS011;25188;51.958;5.842;2023-08-21T13:08:55;1.92;;;0.60;;
39020;SDS011;25188;51.958;5.842;2023-08-21T13:11:21;3.25;;;0.50;;
39020;SDS011;25188;51.958;5.842;2023-08-21T13:13:47;2.42;;;0.55;;
39020;SDS011;25188;51.958;5.842;2023-08-21T13:16:13;2.42;;;0.63;;
39020;SDS011;25188;51.958;5.842;2023-08-21T13:18:39;2.47;;;0.55;;
39020;SDS011;25188;51.958;5.842;2023-08-21T13:21:05;3.47;;;0.47;;
39020;SDS011;25188;51.958;5.842;2023-08-21T13:23:30;3.38;;;0.65;;
39020;SDS011;25188;51.958;5.842;2023-08-21T13:25:59;3.72;;;0.60;;
39020;SDS011;25188;51.958;5.842;2023-08-21T13:28:24;4.80;;;0.75;;
39020;SDS011;25188;51.958;5.842;2023-08-21T13:30:50;4.53;;;0.65;;
39020;SDS011;25188;51.958;5.842;2023-08-21T13:33:18;3.30;;;0.55;;
39020;SDS011;25188;51.958;5.842;2023-08-21T13:35:46;2.67;;;0.60;;
39020;SDS011;25188;51.958;5.842;2023-08-21T13:38:12;4.15;;;0.60;;
39020;SDS011;25188;51.958;5.842;2023-08-21T13:40:39;4.13;;;0.40;;
39020;SDS011;25188;51.958;5.842;2023-08-21T13:43:05;3.80;;;0.60;;
39020;SDS011;25188;51.958;5.842;2023-08-21T13:45:32;3.42;;;0.50;;
39020;SDS011;25188;51.958;5.842;2023-08-21T13:47:58;2.22;;;0.50;;
39020;SDS011;25188;51.958;5.842;2023-08-21T13:50:24;1.30;;;0.40;;
39020;SDS011;25188;51.958;5.842;2023-08-21T13:52:49;1.67;;;0.50;;
39020;SDS011;25188;51.958;5.842;2023-08-21T13:55:15;1.48;;;0.40;;
39020;SDS011;25188;51.958;5.842;2023-08-21T13:57:41;2.15;;;0.30;;
39020;SDS011;25188;51.958;5.842;2023-08-21T14:00:08;0.93;;;0.30;;
39020;SDS011;25188;51.958;5.842;2023-08-21T14:02:38;2.10;;;0.35;;
39020;SDS011;25188;51.958;5.842;2023-08-21T14:05:06;1.52;;;0.30;;
39020;SDS011;25188;51.958;5.842;2023-08-21T14:07:35;1.95;;;0.40;;
39020;SDS011;25188;51.958;5.842;2023-08-21T14:10:04;2.00;;;0.40;;
39020;SDS011;25188;51.958;5.842;2023-08-21T14:12:30;2.80;;;0.40;;
39020;SDS011;25188;51.958;5.842;2023-08-21T14:14:56;2.63;;;0.50;;
39020;SDS011;25188;51.958;5.842;2023-08-21T14:17:27;4.63;;;0.43;;
39020;SDS011;25188;51.958;5.842;2023-08-21T14:19:53;1.63;;;0.40;;
39020;SDS011;25188;51.958;5.842;2023-08-21T14:22:22;1.13;;;0.30;;
39020;SDS011;25188;51.958;5.842;2023-08-21T14:24:51;2.80;;;0.57;;
39020;SDS011;25188;51.958;5.842;2023-08-21T14:27:16;2.85;;;0.30;;
39020;SDS011;25188;51.958;5.842;2023-08-21T14:29:42;1.60;;;0.35;;
39020;SDS011;25188;51.958;5.842;2023-08-21T14:32:09;2.08;;;0.30;;
39020;SDS011;25188;51.958;5.842;2023-08-21T14:34:35;1.02;;;0.20;;
39020;SDS011;25188;51.958;5.842;2023-08-21T14:37:00;2.03;;;0.30;;
39020;SDS011;25188;51.958;5.842;2023-08-21T14:39:29;1.05;;;0.20;;
39020;SDS011;25188;51.958;5.842;2023-08-21T14:41:58;2.97;;;0.40;;
39020;SDS011;25188;51.958;5.842;2023-08-21T14:44:24;1.45;;;0.35;;
39020;SDS011;25188;51.958;5.842;2023-08-21T14:46:51;1.45;;;0.30;;
39020;SDS011;25188;51.958;5.842;2023-08-21T14:49:18;1.70;;;0.40;;
39020;SDS011;25188;51.958;5.842;2023-08-21T14:51:43;1.27;;;0.25;;
39020;SDS011;25188;51.958;5.842;2023-08-21T14:54:09;2.22;;;0.38;;
39020;SDS011;25188;51.958;5.842;2023-08-21T14:56:35;3.00;;;0.40;;
39020;SDS011;25188;51.958;5.842;2023-08-21T14:59:01;2.75;;;0.30;;
39020;SDS011;25188;51.958;5.842;2023-08-21T15:01:27;1.58;;;0.30;;
39020;SDS011;25188;51.958;5.842;2023-08-21T15:03:53;3.42;;;0.63;;
39020;SDS011;25188;51.958;5.842;2023-08-21T15:06:18;2.72;;;0.50;;
39020;SDS011;25188;51.958;5.842;2023-08-21T15:08:44;1.20;;;0.20;;
39020;SDS011;25188;51.958;5.842;2023-08-21T15:11:10;4.82;;;0.32;;
39020;SDS011;25188;51.958;5.842;2023-08-21T15:13:39;0.65;;;0.30;;
39020;SDS011;25188;51.958;5.842;2023-08-21T15:16:05;1.27;;;0.35;;
39020;SDS011;25188;51.958;5.842;2023-08-21T15:18:31;4.47;;;0.38;;
39020;SDS011;25188;51.958;5.842;2023-08-21T15:20:57;1.35;;;0.32;;
39020;SDS011;25188;51.958;5.842;2023-08-21T15:23:24;1.33;;;0.22;;
39020;SDS011;25188;51.958;5.842;2023-08-21T15:25:50;1.67;;;0.35;;
39020;SDS011;25188;51.958;5.842;2023-08-21T15:28:16;1.25;;;0.30;;
39020;SDS011;25188;51.958;5.842;2023-08-21T15:30:42;2.67;;;0.40;;
39020;SDS011;25188;51.958;5.842;2023-08-21T15:33:07;2.33;;;0.30;;
39020;SDS011;25188;51.958;5.842;2023-08-21T15:35:33;1.30;;;0.40;;
39020;SDS011;25188;51.958;5.842;2023-08-21T15:37:59;0.98;;;0.30;;
39020;SDS011;25188;51.958;5.842;2023-08-21T15:40:24;1.40;;;0.32;;
39020;SDS011;25188;51.958;5.842;2023-08-21T15:42:50;2.28;;;0.32;;
39020;SDS011;25188;51.958;5.842;2023-08-21T15:45:15;1.52;;;0.30;;
39020;SDS011;25188;51.958;5.842;2023-08-21T15:47:45;3.75;;;0.75;;
39020;SDS011;25188;51.958;5.842;2023-08-21T15:50:17;1.85;;;0.30;;
39020;SDS011;25188;51.958;5.842;2023-08-21T15:52:44;1.42;;;0.28;;
39020;SDS011;25188;51.958;5.842;2023-08-21T15:55:11;2.05;;;0.30;;
39020;SDS011;25188;51.958;5.842;2023-08-21T15:57:37;4.20;;;0.50;;
39020;SDS011;25188;51.958;5.842;2023-08-21T16:00:03;1.42;;;0.38;;
39020;SDS011;25188;51.958;5.842;2023-08-21T16:02:30;1.85;;;0.40;;
39020;SDS011;25188;51.958;5.842;2023-08-21T16:04:56;1.15;;;0.20;;
39020;SDS011;25188;51.958;5.842;2023-08-21T16:07:21;1.40;;;0.30;;
39020;SDS011;25188;51.958;5.842;2023-08-21T16:09:47;1.13;;;0.20;;
39020;SDS011;25188;51.958;5.842;2023-08-21T16:12:13;1.48;;;0.20;;
39020;SDS011;25188;51.958;5.842;2023-08-21T16:14:38;1.92;;;0.40;;
39020;SDS011;25188;51.958;5.842;2023-08-21T16:17:04;2.13;;;0.30;;
39020;SDS011;25188;51.958;5.842;2023-08-21T16:19:32;1.38;;;0.30;;
39020;SDS011;25188;51.958;5.842;2023-08-21T16:21:58;3.55;;;0.40;;
39020;SDS011;25188;51.958;5.842;2023-08-21T16:24:24;2.13;;;0.28;;
39020;SDS011;25188;51.958;5.842;2023-08-21T16:26:49;1.10;;;0.20;;
39020;SDS011;25188;51.958;5.842;2023-08-21T16:29:15;1.48;;;0.20;;
39020;SDS011;25188;51.958;5.842;2023-08-21T16:31:43;1.10;;;0.20;;
39020;SDS011;25188;51.958;5.842;2023-08-21T16:34:09;1.33;;;0.20;;
39020;SDS011;25188;51.958;5.842;2023-08-21T16:36:35;1.73;;;0.30;;
39020;SDS011;25188;51.958;5.842;2023-08-21T16:39:01;0.45;;;0.10;;
39020;SDS011;25188;51.958;5.842;2023-08-21T16:41:28;1.83;;;0.25;;
39020;SDS011;25188;51.958;5.842;2023-08-21T16:43:53;3.05;;;0.30;;
39020;SDS011;25188;51.958;5.842;2023-08-21T16:46:19;1.65;;;0.20;;
39020;SDS011;25188;51.958;5.842;2023-08-21T16:48:44;1.55;;;0.25;;
39020;SDS011;25188;51.958;5.842;2023-08-21T16:51:10;1.58;;;0.30;;
39020;SDS011;25188;51.958;5.842;2023-08-21T16:53:36;2.15;;;0.30;;
39020;SDS011;25188;51.958;5.842;2023-08-21T16:56:01;4.88;;;0.50;;
39020;SDS011;25188;51.958;5.842;2023-08-21T16:58:28;1.80;;;0.30;;
39020;SDS011;25188;51.958;5.842;2023-08-21T17:00:53;2.58;;;0.20;;
39020;SDS011;25188;51.958;5.842;2023-08-21T17:03:19;1.25;;;0.20;;
39020;SDS011;25188;51.958;5.842;2023-08-21T17:05:45;1.90;;;0.40;;
39020;SDS011;25188;51.958;5.842;2023-08-21T17:08:11;1.40;;;0.22;;
39020;SDS011;25188;51.958;5.842;2023-08-21T17:10:37;1.05;;;0.20;;
39020;SDS011;25188;51.958;5.842;2023-08-21T17:13:02;2.03;;;0.20;;
39020;SDS011;25188;51.958;5.842;2023-08-21T17:15:28;2.38;;;0.40;;
39020;SDS011;25188;51.958;5.842;2023-08-21T17:17:54;1.27;;;0.30;;
39020;SDS011;25188;51.958;5.842;2023-08-21T17:20:23;4.68;;;0.40;;
39020;SDS011;25188;51.958;5.842;2023-08-21T17:22:50;0.90;;;0.22;;
39020;SDS011;25188;51.958;5.842;2023-08-21T17:25:17;0.70;;;0.20;;
39020;SDS011;25188;51.958;5.842;2023-08-21T17:27:42;3.38;;;0.30;;
39020;SDS011;25188;51.958;5.842;2023-08-21T17:30:08;1.50;;;0.30;;
39020;SDS011;25188;51.958;5.842;2023-08-21T17:32:34;1.85;;;0.30;;
39020;SDS011;25188;51.958;5.842;2023-08-21T17:35:00;3.25;;;0.40;;
39020;SDS011;25188;51.958;5.842;2023-08-21T17:37:26;3.03;;;0.35;;
39020;SDS011;25188;51.958;5.842;2023-08-21T17:39:52;1.92;;;0.30;;
39020;SDS011;25188;51.958;5.842;2023-08-21T17:42:17;2.05;;;0.75;;
39020;SDS011;25188;51.958;5.842;2023-08-21T17:44:43;3.38;;;0.30;;
39020;SDS011;25188;51.958;5.842;2023-08-21T17:47:11;2.55;;;0.50;;
39020;SDS011;25188;51.958;5.842;2023-08-21T17:49:37;1.23;;;0.35;;
39020;SDS011;25188;51.958;5.842;2023-08-21T17:52:03;1.92;;;0.30;;
39020;SDS011;25188;51.958;5.842;2023-08-21T17:54:29;2.47;;;0.38;;